Weather at Sary-Arka Airport

Public forecast

Using degrees Celsius for public forecast. Weather courtesy of forecast.io.

Current aviation weather report (METAR) for Sary-Arka Airport

Retrieved 2022/05/28 07:30 UTC (30 minutes ago):

UAKK 280730Z 01007MPS 9999 SCT050CB 19/07 Q1012 NOSIG RMK QFE712/0950

Aviation forecast (TAF) for Sary-Arka Airport

Retrieved 2022/05/28 06:21 UTC (2 hours ago):

TAF UAKK 280501Z 2806/2906 01006MPS 9999 BKN030 BKN100 TX17/2809Z TN09/2824Z TEMPO 2806/2810 36010MPS 5000 -SHRA BKN020CB TEMPO 2810/2818 3100 -TSRA BKN015CB BECMG 2818/2820 VRB02MPS TEMPO 2818/2903 3100 BR SCT011